createdAt,value
2019-04-04T00:00:27.109Z,32.23
2019-04-04T00:02:57.047Z,29.80
2019-04-04T00:05:27.575Z,26.47
2019-04-04T00:07:58.140Z,31.20
2019-04-04T00:10:29.654Z,25.07
2019-04-04T00:12:59.820Z,27.97
2019-04-04T00:15:29.741Z,22.50
2019-04-04T00:17:59.606Z,21.77
2019-04-04T00:20:31.650Z,19.63
2019-04-04T00:23:01.448Z,19.73
2019-04-04T00:25:31.347Z,19.20
2019-04-04T00:28:01.254Z,20.47
2019-04-04T00:30:31.404Z,22.40
2019-04-04T00:33:01.295Z,28.23
2019-04-04T00:35:31.725Z,29.90
2019-04-04T00:38:02.196Z,30.43
2019-04-04T00:40:32.120Z,31.37
2019-04-04T00:43:02.390Z,40.20
2019-04-04T00:45:32.301Z,45.27
2019-04-04T00:48:03.054Z,39.97
2019-04-04T00:50:34.830Z,37.47
2019-04-04T00:53:05.287Z,38.83
2019-04-04T00:55:35.666Z,38.17
2019-04-04T00:58:05.991Z,38.13
2019-04-04T01:00:36.339Z,39.53
2019-04-04T01:03:06.733Z,42.83
2019-04-04T01:05:36.580Z,43.00
2019-04-04T01:08:06.922Z,38.20
2019-04-04T01:10:37.580Z,44.97
2019-04-04T01:13:07.485Z,35.73
2019-04-04T01:15:37.364Z,38.07
2019-04-04T01:18:07.461Z,32.77
2019-04-04T01:20:37.377Z,26.47
2019-04-04T01:23:07.343Z,22.73
2019-04-04T01:25:37.610Z,23.33
2019-04-04T01:28:08.123Z,21.43
2019-04-04T01:30:38.958Z,20.30
2019-04-04T01:33:09.122Z,17.77
2019-04-04T01:35:39.096Z,18.20
2019-04-04T01:38:09.010Z,18.13
2019-04-04T01:40:39.479Z,17.13
2019-04-04T01:43:09.947Z,16.93
2019-04-04T01:45:39.875Z,17.57
2019-04-04T01:48:09.811Z,16.87
2019-04-04T01:50:40.473Z,16.37
2019-04-04T01:53:10.820Z,16.07
2019-04-04T01:55:40.989Z,15.33
2019-04-04T01:58:11.236Z,15.10
2019-04-04T02:00:41.493Z,15.63
2019-04-04T02:03:11.421Z,14.90
2019-04-04T02:05:41.288Z,16.57
2019-04-04T02:08:11.277Z,13.50
2019-04-04T02:10:41.546Z,13.13
2019-04-04T02:13:11.782Z,14.57
2019-04-04T02:15:42.782Z,12.77
2019-04-04T02:18:13.341Z,11.47
2019-04-04T02:20:44.200Z,13.20
2019-04-04T02:23:14.095Z,12.10
2019-04-04T02:25:44.118Z,11.83
2019-04-04T02:28:14.058Z,12.97
2019-04-04T02:30:48.025Z,12.43
2019-04-04T02:33:16.386Z,13.00
2019-04-04T02:35:46.668Z,12.03
2019-04-04T02:38:16.820Z,12.43
2019-04-04T02:40:47.001Z,10.50
2019-04-04T02:43:16.857Z,11.50
2019-04-04T02:45:47.062Z,11.70
2019-04-04T02:48:16.959Z,14.87
2019-04-04T02:50:47.144Z,12.90
2019-04-04T02:53:20.325Z,11.17
2019-04-04T02:55:48.668Z,11.53
2019-04-04T02:58:18.594Z,12.50
2019-04-04T03:00:48.589Z,12.20
2019-04-04T03:03:18.531Z,13.90
2019-04-04T03:05:51.945Z,9.47
2019-04-04T03:08:21.026Z,11.97
2019-04-04T03:10:50.966Z,10.60
2019-04-04T03:13:20.941Z,10.20
2019-04-04T03:15:50.916Z,9.30
2019-04-04T03:18:21.074Z,9.67
2019-04-04T03:20:50.954Z,7.77
2019-04-04T03:23:21.057Z,6.70
2019-04-04T03:25:51.278Z,7.27
2019-04-04T03:28:21.158Z,6.50
2019-04-04T03:30:58.089Z,7.00
2019-04-04T03:33:28.982Z,6.90
2019-04-04T03:35:54.530Z,5.80
2019-04-04T03:38:24.410Z,5.90
2019-04-04T03:40:57.268Z,7.33
2019-04-04T03:43:26.186Z,6.93
2019-04-04T03:46:00.335Z,6.93
2019-04-04T03:48:28.083Z,7.00
2019-04-04T03:51:03.458Z,6.80
2019-04-04T03:53:29.527Z,7.17
2019-04-04T03:56:01.255Z,7.70
2019-04-04T03:58:31.734Z,8.07
2019-04-04T04:01:01.589Z,8.53
2019-04-04T04:03:31.579Z,7.47
2019-04-04T04:06:01.412Z,9.00
2019-04-04T04:08:31.692Z,8.50
2019-04-04T04:11:04.769Z,7.77
2019-04-04T04:13:33.378Z,8.60
2019-04-04T04:16:03.939Z,9.83
2019-04-04T04:18:33.984Z,7.97
2019-04-04T04:21:03.910Z,9.20
2019-04-04T04:23:33.774Z,9.50
2019-04-04T04:26:09.459Z,9.30
2019-04-04T04:28:37.696Z,7.70
2019-04-04T04:31:08.031Z,7.37
2019-04-04T04:33:37.843Z,8.80
2019-04-04T04:36:09.786Z,8.63
2019-04-04T04:38:39.287Z,8.23
2019-04-04T04:41:09.178Z,9.30
2019-04-04T04:43:39.048Z,9.20
2019-04-04T04:46:08.981Z,10.60
2019-04-04T04:48:38.854Z,8.83
2019-04-04T04:51:11.538Z,8.40
2019-04-04T04:53:40.731Z,8.57
2019-04-04T04:56:10.668Z,10.13
2019-04-04T04:58:42.123Z,17.83
2019-04-04T05:01:12.624Z,10.13
2019-04-04T05:03:42.530Z,13.63
2019-04-04T05:06:12.433Z,16.90
2019-04-04T05:08:42.484Z,14.13
2019-04-04T05:11:14.499Z,14.90
2019-04-04T05:13:44.297Z,14.17
2019-04-04T05:16:14.182Z,13.37
2019-04-04T05:18:44.049Z,17.33
2019-04-04T05:21:24.435Z,13.67
2019-04-04T05:23:47.103Z,12.67
2019-04-04T05:26:17.977Z,13.70
2019-04-04T05:28:48.065Z,13.40
2019-04-04T05:31:18.801Z,16.10
2019-04-04T05:33:49.233Z,15.07
2019-04-04T05:36:19.131Z,13.10
2019-04-04T05:38:49.357Z,14.23
2019-04-04T05:41:19.473Z,13.40
2019-04-04T05:43:49.409Z,12.33
2019-04-04T05:46:19.752Z,14.57
2019-04-04T05:48:50.027Z,11.60
2019-04-04T05:51:20.071Z,11.57
2019-04-04T05:53:50.230Z,13.47
2019-04-04T05:56:20.093Z,15.30
2019-04-04T05:58:51.086Z,15.00
2019-04-04T06:01:21.874Z,13.80
2019-04-04T06:03:52.256Z,14.60
2019-04-04T06:06:22.129Z,15.17
2019-04-04T06:08:52.340Z,15.40
2019-04-04T06:11:22.588Z,19.07
2019-04-04T06:13:52.446Z,15.37
2019-04-04T06:16:22.555Z,15.17
2019-04-04T06:18:52.465Z,16.63
2019-04-04T06:21:22.376Z,17.60
2019-04-04T06:23:53.891Z,19.53
2019-04-04T06:26:23.987Z,20.47
2019-04-04T06:28:53.863Z,21.70
2019-04-04T06:31:26.044Z,18.10
2019-04-04T06:33:55.411Z,19.57
2019-04-04T06:36:25.503Z,18.07
2019-04-04T06:38:55.367Z,19.33
2019-04-04T06:41:28.007Z,19.67
2019-04-04T06:43:57.164Z,17.90
2019-04-04T06:46:27.001Z,19.80
2019-04-04T06:48:57.436Z,19.60
2019-04-04T06:51:27.590Z,20.70
2019-04-04T06:53:59.509Z,17.43
2019-04-04T06:56:31.760Z,18.80
2019-04-04T06:59:00.778Z,21.27
2019-04-04T07:01:31.353Z,22.73
2019-04-04T07:04:01.210Z,22.70
2019-04-04T07:06:31.078Z,21.30
2019-04-04T07:09:01.503Z,26.33
2019-04-04T07:11:33.021Z,25.63
2019-04-04T07:14:03.316Z,30.33
2019-04-04T07:16:34.179Z,25.60
2019-04-04T07:19:07.696Z,25.10
2019-04-04T07:21:36.454Z,29.30
2019-04-04T07:24:06.746Z,30.40
2019-04-04T07:26:36.584Z,28.07
2019-04-04T07:29:06.805Z,32.03
2019-04-04T07:31:38.325Z,33.20
2019-04-04T07:34:08.522Z,32.27
2019-04-04T07:36:38.917Z,33.30
2019-04-04T07:39:12.170Z,31.97
2019-04-04T07:41:44.736Z,33.57
2019-04-04T07:44:13.105Z,32.23
2019-04-04T07:46:45.674Z,36.40
2019-04-04T07:49:14.887Z,33.00
2019-04-04T07:51:45.084Z,37.77
2019-04-04T07:54:15.250Z,34.80
2019-04-04T07:56:48.677Z,38.50
2019-04-04T07:59:17.370Z,34.07
2019-04-04T08:01:51.295Z,36.93
2019-04-04T08:04:19.609Z,31.23
2019-04-04T08:06:49.614Z,34.10
2019-04-04T08:09:19.497Z,29.83
2019-04-04T08:11:49.379Z,26.33
2019-04-04T08:14:19.243Z,30.40
2019-04-04T08:16:49.475Z,32.93
2019-04-04T08:19:19.309Z,34.13
2019-04-04T08:21:49.491Z,32.60
2019-04-04T08:24:19.956Z,35.33
2019-04-04T08:26:50.100Z,31.53
2019-04-04T08:29:19.976Z,32.27
2019-04-04T08:31:50.050Z,34.87
2019-04-04T08:34:19.943Z,34.77
2019-04-04T08:36:50.310Z,30.63
2019-04-04T08:39:20.278Z,32.70
2019-04-04T08:41:52.436Z,30.70
2019-04-04T08:44:21.724Z,34.00
2019-04-04T08:46:51.641Z,38.53
2019-04-04T08:49:21.487Z,42.43
2019-04-04T08:51:51.347Z,39.67
2019-04-04T08:54:21.883Z,41.53
2019-04-04T08:56:51.771Z,45.10
2019-04-04T08:59:21.758Z,41.77
2019-04-04T09:01:51.629Z,50.80
2019-04-04T09:04:24.016Z,40.30
2019-04-04T09:06:53.470Z,44.83
2019-04-04T09:09:23.649Z,43.13
2019-04-04T09:11:53.549Z,44.80
2019-04-04T09:14:23.409Z,43.00
2019-04-04T09:16:53.277Z,41.47
2019-04-04T09:19:23.131Z,44.67
2019-04-04T09:21:52.964Z,47.10
2019-04-04T09:24:23.425Z,44.07
2019-04-04T09:26:53.281Z,41.37
2019-04-04T09:29:23.159Z,46.47
2019-04-04T09:31:53.371Z,46.00
2019-04-04T09:34:23.257Z,47.53
2019-04-04T09:36:53.083Z,54.57
2019-04-04T09:39:23.000Z,47.83
2019-04-04T09:41:52.907Z,50.00
2019-04-04T09:44:23.090Z,46.70
2019-04-04T09:47:04.947Z,38.80
2019-04-04T09:49:24.554Z,48.53
2019-04-04T09:51:54.430Z,47.80
2019-04-04T09:54:24.275Z,47.67
2019-04-04T09:56:54.514Z,46.90
2019-04-04T09:59:24.836Z,52.50
2019-04-04T10:01:54.782Z,52.10
2019-04-04T10:04:24.642Z,45.93
2019-04-04T10:06:54.505Z,50.50
2019-04-04T10:09:24.395Z,51.07
2019-04-04T10:11:54.239Z,61.87
2019-04-04T10:14:24.228Z,45.97
2019-04-04T10:16:54.703Z,46.77
2019-04-04T10:19:24.553Z,47.97
2019-04-04T10:21:54.600Z,50.80
2019-04-04T10:24:24.794Z,41.27
2019-04-04T10:26:54.670Z,46.20
2019-04-04T10:29:24.534Z,47.03
2019-04-04T10:31:54.803Z,48.00
2019-04-04T10:34:24.668Z,44.83
2019-04-04T10:36:54.611Z,50.57
2019-04-04T10:39:29.047Z,46.03
2019-04-04T10:41:56.110Z,50.20
2019-04-04T10:44:26.149Z,44.70
2019-04-04T10:46:56.342Z,51.73
2019-04-04T10:49:26.201Z,54.27
2019-04-04T10:51:56.079Z,57.77
2019-04-04T10:54:26.246Z,51.87
2019-04-04T10:56:56.129Z,51.57
2019-04-04T10:59:26.281Z,56.90
2019-04-04T11:01:57.457Z,53.77
2019-04-04T11:04:28.034Z,56.73
2019-04-04T11:06:57.899Z,54.57
2019-04-04T11:09:27.879Z,61.03
2019-04-04T11:11:57.772Z,60.10
2019-04-04T11:14:27.886Z,57.33
2019-04-04T11:16:58.045Z,59.27
2019-04-04T11:19:31.477Z,54.17
2019-04-04T11:21:59.866Z,49.83
2019-04-04T11:24:30.083Z,54.03
2019-04-04T11:27:00.620Z,49.23
2019-04-04T11:29:30.531Z,48.97
2019-04-04T11:32:00.609Z,62.47
2019-04-04T11:34:30.521Z,57.13
2019-04-04T11:37:00.975Z,57.40
2019-04-04T11:39:30.846Z,58.10
2019-04-04T11:42:01.041Z,47.80
2019-04-04T11:44:31.253Z,49.30
2019-04-04T11:47:01.473Z,48.70
2019-04-04T11:49:31.330Z,55.10
2019-04-04T11:52:01.920Z,52.33
2019-04-04T11:54:32.039Z,72.93
2019-04-04T11:57:01.928Z,59.40
2019-04-04T11:59:32.111Z,60.43
2019-04-04T12:02:01.979Z,49.00
2019-04-04T12:04:31.840Z,52.93
2019-04-04T12:07:01.904Z,54.90
2019-04-04T12:09:31.808Z,53.23
2019-04-04T12:12:01.705Z,56.03
2019-04-04T12:14:31.588Z,50.77
2019-04-04T12:17:01.742Z,53.33
2019-04-04T12:19:31.965Z,50.00
2019-04-04T12:22:02.022Z,47.50
2019-04-04T12:24:32.251Z,45.03
2019-04-04T12:27:02.561Z,59.43
2019-04-04T12:29:34.256Z,53.67
2019-04-04T12:32:04.073Z,52.30
2019-04-04T12:34:34.498Z,51.43
2019-04-04T12:37:04.785Z,45.03
2019-04-04T12:39:35.003Z,45.20
2019-04-04T12:42:05.739Z,52.40
2019-04-04T12:44:35.862Z,47.33
2019-04-04T12:47:05.726Z,48.03
2019-04-04T12:49:35.868Z,51.30
2019-04-04T12:52:06.184Z,49.10
2019-04-04T12:54:36.524Z,46.87
2019-04-04T12:57:06.542Z,49.10
2019-04-04T12:59:36.685Z,51.20
2019-04-04T13:02:06.811Z,48.77
2019-04-04T13:04:37.310Z,46.53
2019-04-04T13:07:07.272Z,47.63
2019-04-04T13:09:37.444Z,46.17
2019-04-04T13:12:07.342Z,46.97
2019-04-04T13:14:37.375Z,46.50
2019-04-04T13:17:07.336Z,51.87
2019-04-04T13:19:37.195Z,50.40
2019-04-04T13:22:07.234Z,54.90
2019-04-04T13:24:37.136Z,52.07
2019-04-04T13:27:07.513Z,54.63
2019-04-04T13:29:37.538Z,43.77
2019-04-04T13:32:07.499Z,47.70
2019-04-04T13:34:37.379Z,47.27
2019-04-04T13:37:07.962Z,44.70
2019-04-04T13:39:38.035Z,51.30
2019-04-04T13:42:08.222Z,51.90
2019-04-04T13:44:38.530Z,47.13
2019-04-04T13:47:08.421Z,50.50
2019-04-04T13:49:39.235Z,48.13
2019-04-04T13:52:11.558Z,47.03
2019-04-04T13:54:40.757Z,51.50
2019-04-04T13:57:10.634Z,51.53
2019-04-04T13:59:40.951Z,46.97
2019-04-04T14:02:10.839Z,52.60
2019-04-04T14:04:40.846Z,54.20
2019-04-04T14:07:11.090Z,51.87
2019-04-04T14:09:44.457Z,45.77
2019-04-04T14:12:14.325Z,51.83
2019-04-04T14:14:44.240Z,49.70
2019-04-04T14:17:14.166Z,50.87
2019-04-04T14:19:44.365Z,43.97
2019-04-04T14:22:14.234Z,47.60
2019-04-04T14:24:44.387Z,44.60
2019-04-04T14:27:14.539Z,46.50
2019-04-04T14:29:44.430Z,48.87
2019-04-04T14:32:15.011Z,47.30
2019-04-04T14:34:44.885Z,47.67
2019-04-04T14:37:14.762Z,45.90
2019-04-04T14:39:44.913Z,53.80
2019-04-04T14:42:14.791Z,52.67
2019-04-04T14:44:44.671Z,52.60
2019-04-04T14:47:16.249Z,47.47
2019-04-04T14:49:46.232Z,56.37
2019-04-04T14:52:19.389Z,50.23
2019-04-04T14:54:48.093Z,47.33
2019-04-04T14:57:18.014Z,51.37
2019-04-04T14:59:48.099Z,54.40
2019-04-04T15:02:18.012Z,56.07
2019-04-04T15:04:48.176Z,52.47
2019-04-04T15:07:18.109Z,58.47
2019-04-04T15:09:48.070Z,56.73
2019-04-04T15:12:17.996Z,51.40
2019-04-04T15:14:48.569Z,57.30
2019-04-04T15:17:18.775Z,56.60
2019-04-04T15:19:49.274Z,51.23
2019-04-04T15:22:19.170Z,54.33
2019-04-04T15:24:49.555Z,53.53
2019-04-04T15:27:19.612Z,49.87
2019-04-04T15:29:49.767Z,53.03
2019-04-04T15:32:19.638Z,51.70
2019-04-04T15:34:49.514Z,51.07
2019-04-04T15:37:19.390Z,53.53
2019-04-04T15:39:49.274Z,47.60
2019-04-04T15:42:19.387Z,51.73
2019-04-04T15:44:49.434Z,42.87
2019-04-04T15:47:19.351Z,48.10
2019-04-04T15:49:49.300Z,47.57
2019-04-04T15:52:19.156Z,45.30
2019-04-04T15:54:49.639Z,49.30
2019-04-04T15:57:19.588Z,54.03
2019-04-04T15:59:49.532Z,51.70
2019-04-04T16:02:19.745Z,49.37
2019-04-04T16:04:49.923Z,48.97
2019-04-04T16:07:19.778Z,48.23
2019-04-04T16:09:50.003Z,49.37
2019-04-04T16:12:19.977Z,52.07
2019-04-04T16:14:49.884Z,50.47
2019-04-04T16:17:19.728Z,57.03
2019-04-04T16:19:49.619Z,60.73
2019-04-04T16:22:19.468Z,51.87
2019-04-04T16:24:49.635Z,57.53
2019-04-04T16:27:19.496Z,55.50
2019-04-04T16:29:49.395Z,54.77
2019-04-04T16:32:19.277Z,58.63
2019-04-04T16:34:49.141Z,58.10
2019-04-04T16:37:19.018Z,69.80
2019-04-04T16:39:48.901Z,62.00
2019-04-04T16:42:18.915Z,67.07
2019-04-04T16:44:48.779Z,61.00
2019-04-04T16:47:18.719Z,63.30
2019-04-04T16:49:48.838Z,59.77
2019-04-04T16:52:18.675Z,67.87
2019-04-04T16:54:48.950Z,65.63
2019-04-04T16:57:18.787Z,59.87
2019-04-04T16:59:48.680Z,68.27
2019-04-04T17:02:19.062Z,60.43
2019-04-04T17:04:49.279Z,65.40
2019-04-04T17:07:19.142Z,70.83
2019-04-04T17:09:49.545Z,68.27
2019-04-04T17:12:19.402Z,64.93
2019-04-04T17:14:49.430Z,74.13
2019-04-04T17:17:19.286Z,67.60
2019-04-04T17:19:49.162Z,69.30
2019-04-04T17:22:19.041Z,78.60
2019-04-04T17:24:48.898Z,66.67
2019-04-04T17:27:18.832Z,74.40
2019-04-04T17:29:48.786Z,74.23
2019-04-04T17:32:19.168Z,77.37
2019-04-04T17:34:49.099Z,76.07
2019-04-04T17:37:18.991Z,87.37
2019-04-04T17:39:48.814Z,83.37
2019-04-04T17:42:29.009Z,82.70
2019-04-04T17:44:53.040Z,81.07
2019-04-04T17:47:23.826Z,81.60
2019-04-04T17:50:04.550Z,86.40
2019-04-04T17:52:35.321Z,89.63
2019-04-04T17:55:05.630Z,90.37
2019-04-04T17:57:36.178Z,97.37
2019-04-04T18:00:07.425Z,106.50
2019-04-04T18:02:37.422Z,101.00
2019-04-04T18:05:08.020Z,96.50
2019-04-04T18:07:38.193Z,109.10
2019-04-04T18:10:10.473Z,108.00
2019-04-04T18:12:40.930Z,104.17
2019-04-04T18:15:11.824Z,107.97
2019-04-04T18:17:41.990Z,113.07
2019-04-04T18:20:13.612Z,105.00
2019-04-04T18:22:43.488Z,115.87
2019-04-04T18:25:13.940Z,113.23
2019-04-04T18:27:43.882Z,114.90
2019-04-04T18:30:15.957Z,122.20
2019-04-04T18:32:45.790Z,126.90
2019-04-04T18:35:16.124Z,133.17
2019-04-04T18:37:46.152Z,124.30
2019-04-04T18:40:17.804Z,121.00
2019-04-04T18:42:53.495Z,133.40
2019-04-04T18:45:19.899Z,127.17
2019-04-04T18:47:50.127Z,145.10
2019-04-04T18:50:20.137Z,134.40
2019-04-04T18:52:50.040Z,156.70
2019-04-04T18:55:20.459Z,175.87
2019-04-04T18:57:50.487Z,169.60
2019-04-04T19:00:20.420Z,169.27
2019-04-04T19:02:50.747Z,172.43
2019-04-04T19:05:21.171Z,176.23
2019-04-04T19:07:51.023Z,181.20
2019-04-04T19:10:21.417Z,172.73
2019-04-04T19:12:51.271Z,198.27
2019-04-04T19:15:22.425Z,191.50
2019-04-04T19:17:52.523Z,192.87
2019-04-04T19:20:22.461Z,200.63
2019-04-04T19:22:52.649Z,190.53
2019-04-04T19:25:22.657Z,198.30
2019-04-04T19:27:52.574Z,189.23
2019-04-04T19:30:23.069Z,202.93
2019-04-04T19:32:53.116Z,219.23
2019-04-04T19:35:23.340Z,204.43
2019-04-04T19:38:00.039Z,198.70
2019-04-04T19:40:24.864Z,184.57
2019-04-04T19:42:55.135Z,191.00
2019-04-04T19:45:25.123Z,201.00
2019-04-04T19:47:55.007Z,196.37
2019-04-04T19:50:24.936Z,199.80
2019-04-04T19:52:55.121Z,210.23
2019-04-04T19:55:25.095Z,220.37
2019-04-04T19:57:54.964Z,196.37
2019-04-04T20:00:24.946Z,187.00
2019-04-04T20:02:55.134Z,185.37
2019-04-04T20:05:25.170Z,200.90
2019-04-04T20:07:55.056Z,193.60
2019-04-04T20:10:24.932Z,197.27
2019-04-04T20:12:54.827Z,213.90
2019-04-04T20:15:24.818Z,187.77
2019-04-04T20:17:55.108Z,171.67
2019-04-04T20:20:25.046Z,180.33
2019-04-04T20:22:55.261Z,174.13
2019-04-04T20:25:25.156Z,185.87
2019-04-04T20:27:55.370Z,171.63
2019-04-04T20:30:38.275Z,181.37
2019-04-04T20:33:14.219Z,175.43
2019-04-04T20:35:44.102Z,185.10
2019-04-04T20:38:14.027Z,184.27
2019-04-04T20:40:44.018Z,166.10
2019-04-04T20:43:14.036Z,174.07
2019-04-04T20:45:43.903Z,177.80
2019-04-04T20:48:13.815Z,168.03
2019-04-04T20:50:43.957Z,173.00
2019-04-04T20:53:13.914Z,168.43
2019-04-04T20:55:44.115Z,169.83
2019-04-04T20:58:14.022Z,164.70
2019-04-04T21:00:43.880Z,173.33
2019-04-04T21:03:13.856Z,183.33
2019-04-04T21:05:43.857Z,162.00
2019-04-04T21:08:13.756Z,169.50
2019-04-04T21:10:43.659Z,173.10
2019-04-04T21:13:13.569Z,179.43
2019-04-04T21:15:43.739Z,176.97
2019-04-04T21:18:14.055Z,200.57
2019-04-04T21:20:44.258Z,187.27
2019-04-04T21:23:14.465Z,206.77
2019-04-04T21:25:44.391Z,184.87
2019-04-04T21:28:14.559Z,170.03
2019-04-04T21:30:44.507Z,202.63
2019-04-04T21:33:14.656Z,180.90
2019-04-04T21:35:44.584Z,175.93
2019-04-04T21:38:14.504Z,183.90
2019-04-04T21:40:44.413Z,176.60
2019-04-04T21:43:14.297Z,169.83
2019-04-04T21:45:44.216Z,181.53
2019-04-04T21:48:14.519Z,166.63
2019-04-04T21:50:45.345Z,185.80
2019-04-04T21:53:15.250Z,175.93
2019-04-04T21:55:45.183Z,183.20
2019-04-04T21:58:15.333Z,168.37
2019-04-04T22:00:46.043Z,173.27
2019-04-04T22:03:16.238Z,186.37
2019-04-04T22:05:46.482Z,168.17
2019-04-04T22:08:16.353Z,164.23
2019-04-04T22:10:46.627Z,175.87
2019-04-04T22:13:16.820Z,178.30
2019-04-04T22:15:47.129Z,197.13
2019-04-04T22:18:17.346Z,179.43
2019-04-04T22:20:47.797Z,186.30
2019-04-04T22:23:18.339Z,178.37
2019-04-04T22:25:48.533Z,171.33
2019-04-04T22:28:18.734Z,189.57
2019-04-04T22:30:48.683Z,168.57
2019-04-04T22:33:18.905Z,182.90
2019-04-04T22:35:49.131Z,173.33
2019-04-04T22:38:19.028Z,186.53
2019-04-04T22:40:49.233Z,169.70
2019-04-04T22:43:19.122Z,178.77
2019-04-04T22:45:49.013Z,196.47
2019-04-04T22:48:18.910Z,199.43
2019-04-04T22:50:49.103Z,199.90
2019-04-04T22:53:19.012Z,184.47
2019-04-04T22:55:49.165Z,178.90
2019-04-04T22:58:28.156Z,176.27
2019-04-04T23:00:51.007Z,172.63
2019-04-04T23:03:21.074Z,178.67
2019-04-04T23:05:50.970Z,167.50
2019-04-04T23:08:21.416Z,160.40
2019-04-04T23:10:51.642Z,167.03
2019-04-04T23:13:21.575Z,177.60
2019-04-04T23:15:51.768Z,164.70
2019-04-04T23:18:21.904Z,161.00
2019-04-04T23:20:51.786Z,167.13
2019-04-04T23:23:21.688Z,179.60
2019-04-04T23:25:51.595Z,172.70
2019-04-04T23:28:21.733Z,175.33
2019-04-04T23:30:51.720Z,179.83
2019-04-04T23:33:21.809Z,181.13
2019-04-04T23:35:51.972Z,179.13
2019-04-04T23:38:22.150Z,169.07
2019-04-04T23:40:52.075Z,168.37
2019-04-04T23:43:21.962Z,181.03
2019-04-04T23:45:52.185Z,174.43
2019-04-04T23:48:22.767Z,169.57
2019-04-04T23:50:52.627Z,176.23
2019-04-04T23:53:22.547Z,161.57
2019-04-04T23:55:52.461Z,173.50
2019-04-04T23:58:22.378Z,176.93
